Time;durP1;ratioP1;P1;durP2;ratioP2;P2;SDS_P1;SDS_P2;PMS_P1;PMS_P2;Temp;Humidity;BMP_temperature;BMP_pressure;BME280_temperature;BME280_humidity;BME280_pressure;Samples;Min_cycle;Max_cycle;Signal;HPM_P1;HPM_P2
2023/04/14 00:00:56;;;;;;;5.85;4.10;;;3.80;99.90;;;;;;5027692;28;20499;-61
2023/04/14 00:03:21;;;;;;;4.72;4.00;;;3.70;99.90;;;;;;5033991;28;20486;-60
2023/04/14 00:05:47;;;;;;;4.43;4.03;;;3.70;99.90;;;;;;5030258;28;20018;-59
2023/04/14 00:08:12;;;;;;;6.35;4.07;;;3.70;99.90;;;;;;5035968;28;20037;-58
2023/04/14 00:10:38;;;;;;;5.30;4.00;;;3.70;99.90;;;;;;5032584;28;20031;-60
2023/04/14 00:13:04;;;;;;;4.85;4.10;;;3.80;99.90;;;;;;5048061;28;20097;-58
2023/04/14 00:15:29;;;;;;;4.78;4.38;;;3.70;99.90;;;;;;5044237;28;20056;-60
2023/04/14 00:17:55;;;;;;;4.25;3.85;;;3.70;99.90;;;;;;5047463;28;20025;-57
2023/04/14 00:20:20;;;;;;;5.32;3.78;;;3.70;99.90;;;;;;5045073;28;20666;-60
2023/04/14 00:22:46;;;;;;;4.63;4.13;;;3.70;99.90;;;;;;5040371;28;20117;-59
2023/04/14 00:25:11;;;;;;;4.60;3.42;;;3.70;99.90;;;;;;5038136;28;20417;-59
2023/04/14 00:27:37;;;;;;;3.95;3.47;;;3.60;99.90;;;;;;5038940;28;20556;-59
2023/04/14 00:30:03;;;;;;;3.88;3.47;;;3.60;99.90;;;;;;5029924;28;20036;-60
2023/04/14 00:32:28;;;;;;;3.72;3.33;;;3.60;99.90;;;;;;5042543;28;20029;-58
2023/04/14 00:34:55;;;;;;;4.72;4.03;;;3.50;99.90;;;;;;5046094;28;20024;-59
2023/04/14 00:37:21;;;;;;;5.40;3.88;;;3.50;99.90;;;;;;5039668;28;20028;-60
2023/04/14 00:39:47;;;;;;;4.22;3.78;;;3.50;99.90;;;;;;5047235;28;20017;-60
2023/04/14 00:42:12;;;;;;;4.35;3.45;;;3.40;99.90;;;;;;5037942;28;20056;-58
2023/04/14 00:44:38;;;;;;;5.97;4.60;;;3.40;99.90;;;;;;5033791;28;20022;-59
2023/04/14 00:47:04;;;;;;;6.10;4.45;;;3.40;99.90;;;;;;5028150;28;20025;-58
2023/04/14 00:49:30;;;;;;;5.40;4.47;;;3.30;99.90;;;;;;5033009;28;20034;-60
2023/04/14 00:51:56;;;;;;;4.18;3.78;;;3.30;99.90;;;;;;5046413;28;20040;-60
2023/04/14 00:54:22;;;;;;;5.75;3.88;;;3.30;99.90;;;;;;5037439;28;20095;-60
2023/04/14 00:56:49;;;;;;;4.97;3.88;;;3.30;99.90;;;;;;5041046;28;20032;-60
2023/04/14 00:59:15;;;;;;;4.85;3.78;;;3.20;99.90;;;;;;5041267;28;20156;-60
2023/04/14 01:01:41;;;;;;;4.72;4.22;;;3.20;99.90;;;;;;5032375;28;20123;-60
2023/04/14 01:04:07;;;;;;;6.15;3.42;;;3.20;99.90;;;;;;5030577;28;20179;-60
2023/04/14 01:06:33;;;;;;;5.70;3.60;;;3.20;99.90;;;;;;5043481;28;20479;-58
2023/04/14 01:08:59;;;;;;;3.90;3.55;;;3.10;99.90;;;;;;5046021;28;20035;-60
2023/04/14 01:11:47;;;;;;;3.40;3.10;;;3.10;99.90;;;;;;5047132;28;20044;-60
2023/04/14 01:14:26;;;;;;;3.47;3.17;;;3.10;99.90;;;;;;5041920;28;20390;-60
2023/04/14 01:16:58;;;;;;;5.50;3.47;;;3.00;99.90;;;;;;5047287;28;20025;-60
2023/04/14 01:19:24;;;;;;;4.65;3.60;;;3.00;99.90;;;;;;5033799;28;20026;-59
2023/04/14 01:21:53;;;;;;;4.88;3.53;;;3.00;99.90;;;;;;5042597;28;20024;-59
2023/04/14 01:24:40;;;;;;;5.53;4.03;;;3.00;99.90;;;;;;5042795;28;20018;-60
2023/04/14 01:27:24;;;;;;;4.18;3.78;;;3.00;99.90;;;;;;5049747;28;20035;-60
2023/04/14 01:30:14;;;;;;;5.20;3.72;;;3.00;99.90;;;;;;5040129;28;20030;-60
2023/04/14 01:32:43;;;;;;;6.50;3.25;;;2.90;99.90;;;;;;5046807;28;20102;-59
2023/04/14 01:35:25;;;;;;;5.03;3.60;;;2.90;99.90;;;;;;5027897;28;20041;-60
2023/04/14 01:38:02;;;;;;;4.40;3.55;;;2.90;99.90;;;;;;5038883;28;20487;-60
2023/04/14 01:40:31;;;;;;;5.53;4.05;;;2.90;99.90;;;;;;5030500;28;20022;-60
2023/04/14 01:43:01;;;;;;;4.30;3.58;;;2.80;99.90;;;;;;5041530;28;20032;-60
2023/04/14 01:45:33;;;;;;;7.22;4.38;;;2.80;99.90;;;;;;5024665;28;20022;-60
2023/04/14 01:47:59;;;;;;;5.70;4.35;;;2.80;99.90;;;;;;5023489;28;20053;-59
2023/04/14 01:50:26;;;;;;;5.75;4.20;;;2.80;99.90;;;;;;5032056;28;20512;-60
2023/04/14 01:52:53;;;;;;;6.25;4.72;;;2.70;99.90;;;;;;5029512;28;20026;-60
2023/04/14 01:55:22;;;;;;;6.25;4.90;;;2.70;99.90;;;;;;5035438;28;20107;-59
2023/04/14 01:57:50;;;;;;;8.98;5.32;;;2.70;99.90;;;;;;5045471;28;20114;-60
2023/04/14 02:00:18;;;;;;;6.68;4.95;;;2.60;99.90;;;;;;5038931;28;20112;-59
2023/04/14 02:02:45;;;;;;;6.18;5.30;;;2.60;99.90;;;;;;5039684;28;20506;-60
2023/04/14 02:05:12;;;;;;;6.57;5.22;;;2.60;99.90;;;;;;5038820;28;20030;-58
2023/04/14 02:07:39;;;;;;;8.43;4.75;;;2.60;99.90;;;;;;5041515;28;20021;-59
2023/04/14 02:10:08;;;;;;;6.28;5.10;;;2.60;99.90;;;;;;5037502;28;20128;-60
2023/04/14 02:12:35;;;;;;;5.47;4.43;;;2.60;99.90;;;;;;5043510;28;20124;-59
2023/04/14 02:15:01;;;;;;;6.35;4.47;;;2.60;99.90;;;;;;5041902;28;20036;-60
2023/04/14 02:17:28;;;;;;;5.53;4.10;;;2.60;99.90;;;;;;5038167;28;20021;-58
2023/04/14 02:19:56;;;;;;;4.80;4.07;;;2.60;99.90;;;;;;5041963;28;20033;-58
2023/04/14 02:22:21;;;;;;;4.93;3.65;;;2.60;99.90;;;;;;5035415;28;20025;-58
2023/04/14 02:24:47;;;;;;;5.28;3.20;;;2.60;99.90;;;;;;5028795;28;20074;-60
2023/04/14 02:27:17;;;;;;;2.97;2.72;;;2.60;99.90;;;;;;5043055;28;20107;-60
2023/04/14 02:29:51;;;;;;;3.75;3.05;;;2.50;99.90;;;;;;5041578;28;20024;-61
2023/04/14 02:32:23;;;;;;;3.95;3.33;;;2.50;99.90;;;;;;5043131;28;20059;-59
2023/04/14 02:35:00;;;;;;;4.88;3.50;;;2.50;99.90;;;;;;5033961;28;20108;-57
2023/04/14 02:37:32;;;;;;;5.15;3.28;;;2.50;99.90;;;;;;5039853;28;20394;-61
2023/04/14 02:40:06;;;;;;;3.53;2.80;;;2.50;99.90;;;;;;5029739;28;20101;-61
2023/04/14 02:42:34;;;;;;;3.00;2.60;;;2.40;99.90;;;;;;5043983;28;20115;-61
2023/04/14 02:45:05;;;;;;;4.57;2.72;;;2.40;99.90;;;;;;5038930;28;20104;-61
2023/04/14 02:47:42;;;;;;;3.55;2.45;;;2.40;99.90;;;;;;5046429;28;20563;-61
2023/04/14 02:50:12;;;;;;;5.10;3.40;;;2.40;99.90;;;;;;5024178;28;20036;-61
2023/04/14 02:52:39;;;;;;;4.13;3.10;;;2.30;99.90;;;;;;5034654;28;20031;-61
2023/04/14 02:55:08;;;;;;;4.28;3.58;;;2.30;99.90;;;;;;5035196;28;20044;-60
2023/04/14 02:57:34;;;;;;;3.90;3.42;;;2.30;99.90;;;;;;5040597;28;20498;-61
2023/04/14 03:00:02;;;;;;;4.03;3.63;;;2.30;99.90;;;;;;5040165;28;20230;-61
2023/04/14 03:02:28;;;;;;;3.83;3.47;;;2.30;99.90;;;;;;5039531;28;20057;-61
2023/04/14 03:04:54;;;;;;;7.38;3.40;;;2.20;99.90;;;;;;5043157;28;20070;-60
2023/04/14 03:07:20;;;;;;;4.32;3.53;;;2.20;99.90;;;;;;5041290;28;20056;-61
2023/04/14 03:09:50;;;;;;;6.38;3.90;;;2.20;99.90;;;;;;5041775;28;20056;-61
2023/04/14 03:12:17;;;;;;;4.70;3.83;;;2.20;99.90;;;;;;5042045;28;20028;-60
2023/04/14 03:14:43;;;;;;;4.07;3.65;;;2.20;99.90;;;;;;5044618;28;20036;-60
2023/04/14 03:17:10;;;;;;;6.82;3.97;;;2.20;99.90;;;;;;5039361;28;20026;-60
2023/04/14 03:19:39;;;;;;;4.32;3.85;;;2.20;99.90;;;;;;5041705;28;20031;-61
2023/04/14 03:22:06;;;;;;;5.13;3.58;;;2.20;99.90;;;;;;5041656;28;20101;-61
2023/04/14 03:24:33;;;;;;;4.13;3.65;;;2.20;99.90;;;;;;5042104;28;20010;-61
2023/04/14 03:27:07;;;;;;;4.82;3.88;;;2.10;99.90;;;;;;5033059;28;20041;-61
2023/04/14 03:29:45;;;;;;;4.43;3.83;;;2.10;99.90;;;;;;5039583;28;20029;-61
2023/04/14 03:32:12;;;;;;;5.80;4.47;;;2.10;99.90;;;;;;5023463;28;20041;-61
2023/04/14 03:34:41;;;;;;;5.57;4.10;;;2.10;99.90;;;;;;5029342;28;20116;-60
2023/04/14 03:37:08;;;;;;;4.35;3.60;;;2.10;99.90;;;;;;5034266;28;20582;-61
2023/04/14 03:39:37;;;;;;;4.88;4.20;;;2.10;99.90;;;;;;5027123;28;20029;-61
2023/04/14 03:42:12;;;;;;;5.45;4.68;;;2.10;99.90;;;;;;5045420;28;20021;-59
2023/04/14 03:44:41;;;;;;;6.47;4.18;;;2.10;99.90;;;;;;5035474;28;20041;-59
2023/04/14 03:47:09;;;;;;;5.05;3.50;;;2.10;99.90;;;;;;5042280;28;20029;-61
2023/04/14 03:49:38;;;;;;;5.80;5.00;;;2.10;99.90;;;;;;5037935;28;20029;-59
2023/04/14 03:52:07;;;;;;;6.93;4.95;;;2.10;99.90;;;;;;5037820;28;20031;-60
2023/04/14 03:54:35;;;;;;;6.18;5.03;;;2.10;99.90;;;;;;5032696;28;20589;-61
2023/04/14 03:57:05;;;;;;;7.32;5.10;;;2.10;99.90;;;;;;5047094;28;20116;-59
2023/04/14 03:59:31;;;;;;;6.47;5.43;;;2.10;99.90;;;;;;5034657;28;20486;-60
2023/04/14 04:01:57;;;;;;;6.75;5.47;;;2.10;99.90;;;;;;5031652;28;20033;-60
2023/04/14 04:04:25;;;;;;;6.85;5.25;;;2.10;99.90;;;;;;5036117;28;20490;-60
2023/04/14 04:06:52;;;;;;;7.95;4.65;;;2.10;99.90;;;;;;5039424;28;20086;-61
2023/04/14 04:09:23;;;;;;;6.93;4.95;;;2.10;99.90;;;;;;5038768;28;20079;-61
2023/04/14 04:11:51;;;;;;;5.47;4.90;;;2.10;99.90;;;;;;5044639;28;20021;-57
2023/04/14 04:14:19;;;;;;;6.20;4.78;;;2.00;99.90;;;;;;5040155;28;20027;-59
2023/04/14 04:16:48;;;;;;;6.25;5.00;;;2.00;99.90;;;;;;5043426;28;20078;-58
2023/04/14 04:19:14;;;;;;;5.65;4.63;;;2.10;99.90;;;;;;5031556;28;20476;-60
2023/04/14 04:21:43;;;;;;;6.70;4.10;;;2.00;99.90;;;;;;5042203;28;20053;-60
2023/04/14 04:24:11;;;;;;;6.82;5.15;;;2.00;99.90;;;;;;5037694;28;20510;-58
2023/04/14 04:26:36;;;;;;;5.82;4.47;;;2.00;99.90;;;;;;5036467;28;20017;-57
2023/04/14 04:29:04;;;;;;;5.75;4.75;;;2.00;99.90;;;;;;5042085;28;20601;-59
2023/04/14 04:31:31;;;;;;;6.25;5.22;;;2.00;99.90;;;;;;5043526;28;20037;-58
2023/04/14 04:33:57;;;;;;;6.18;5.05;;;2.00;99.90;;;;;;5040351;28;20056;-60
2023/04/14 04:36:25;;;;;;;7.85;5.40;;;2.00;99.90;;;;;;5042731;28;20561;-58
2023/04/14 04:38:51;;;;;;;6.22;5.50;;;2.00;99.90;;;;;;5040671;28;20085;-61
2023/04/14 04:41:24;;;;;;;10.43;7.20;;;2.00;99.90;;;;;;5030347;28;20061;-60
2023/04/14 04:43:49;;;;;;;8.68;6.45;;;2.00;99.90;;;;;;5032003;28;20041;-60
2023/04/14 04:46:37;;;;;;;7.55;6.25;;;2.00;99.90;;;;;;5038949;28;20387;-60
2023/04/14 04:49:03;;;;;;;9.65;7.07;;;2.10;99.90;;;;;;5047400;28;20066;-61
2023/04/14 04:51:28;;;;;;;11.20;7.70;;;2.10;99.90;;;;;;5033255;28;20402;-60
2023/04/14 04:53:54;;;;;;;9.40;7.05;;;2.10;99.90;;;;;;5031225;28;20030;-58
2023/04/14 04:56:20;;;;;;;10.68;7.28;;;2.20;99.90;;;;;;5048008;28;20037;-59
2023/04/14 04:58:47;;;;;;;9.70;6.90;;;2.20;99.90;;;;;;5041460;28;20403;-61
2023/04/14 05:01:14;;;;;;;12.25;7.28;;;2.20;99.90;;;;;;5041885;28;20066;-60
2023/04/14 05:03:40;;;;;;;9.57;6.68;;;2.20;99.90;;;;;;5042140;28;20446;-58
2023/04/14 05:06:06;;;;;;;8.88;6.38;;;2.20;99.90;;;;;;5043255;28;20040;-59
2023/04/14 05:08:31;;;;;;;6.97;5.85;;;2.30;99.90;;;;;;5034422;28;20068;-58
2023/04/14 05:10:57;;;;;;;9.15;6.30;;;2.30;99.90;;;;;;5028523;28;20029;-57
2023/04/14 05:13:22;;;;;;;10.10;6.30;;;2.40;99.90;;;;;;5047113;28;20025;-61
2023/04/14 05:15:48;;;;;;;8.95;6.07;;;2.40;99.90;;;;;;5041571;28;20022;-60
2023/04/14 05:18:14;;;;;;;9.07;6.05;;;2.40;99.90;;;;;;5032526;28;20033;-59
2023/04/14 05:20:39;;;;;;;10.00;6.20;;;2.40;99.90;;;;;;5040552;28;20395;-61
2023/04/14 05:23:05;;;;;;;11.20;7.05;;;2.40;99.90;;;;;;5033678;28;20029;-60
2023/04/14 05:25:31;;;;;;;9.30;5.93;;;2.40;99.90;;;;;;5041475;28;20025;-60
2023/04/14 05:27:56;;;;;;;8.45;5.90;;;2.50;99.90;;;;;;5045348;28;20029;-60
2023/04/14 05:30:22;;;;;;;8.75;5.72;;;2.50;99.90;;;;;;5035805;28;20525;-59
2023/04/14 05:32:48;;;;;;;7.18;6.05;;;2.60;99.90;;;;;;5042199;28;20036;-59
2023/04/14 05:35:14;;;;;;;8.73;6.57;;;2.60;99.90;;;;;;5032786;28;20017;-59
2023/04/14 05:37:40;;;;;;;9.43;6.55;;;2.70;99.90;;;;;;5017086;28;20029;-59
2023/04/14 05:40:06;;;;;;;10.13;6.20;;;2.70;99.90;;;;;;5032777;28;20013;-61
2023/04/14 05:42:32;;;;;;;8.43;6.47;;;2.80;99.90;;;;;;5042464;28;20487;-59
2023/04/14 05:44:58;;;;;;;14.25;8.43;;;2.80;99.90;;;;;;5035423;28;20103;-60
2023/04/14 05:47:23;;;;;;;9.95;8.00;;;2.90;99.90;;;;;;5048644;28;20025;-60
2023/04/14 05:49:49;;;;;;;13.10;7.13;;;3.00;99.90;;;;;;5032269;28;20028;-60
2023/04/14 05:52:14;;;;;;;8.27;6.32;;;3.00;99.90;;;;;;5041709;28;20100;-60
2023/04/14 05:54:40;;;;;;;9.63;5.97;;;3.10;99.90;;;;;;5034335;28;20092;-60
2023/04/14 05:57:06;;;;;;;8.63;6.75;;;3.20;99.90;;;;;;5046500;28;20048;-59
2023/04/14 05:59:31;;;;;;;8.32;6.20;;;3.20;99.90;;;;;;5043077;28;20089;-58
2023/04/14 06:01:57;;;;;;;10.90;7.70;;;3.20;99.90;;;;;;5038417;28;20125;-59
2023/04/14 06:04:22;;;;;;;9.35;7.47;;;3.30;99.90;;;;;;5039810;28;20541;-60
2023/04/14 06:06:48;;;;;;;14.00;6.97;;;3.40;99.90;;;;;;5037353;28;20470;-56
2023/04/14 06:09:13;;;;;;;8.48;7.47;;;3.50;99.90;;;;;;5041487;28;20025;-60
2023/04/14 06:11:39;;;;;;;11.60;8.27;;;3.50;99.90;;;;;;5042698;28;20024;-59
2023/04/14 06:14:06;;;;;;;9.90;8.13;;;3.60;99.90;;;;;;5043974;28;20036;-60
2023/04/14 06:16:32;;;;;;;11.18;7.70;;;3.60;99.90;;;;;;5039838;28;20028;-58
2023/04/14 06:18:57;;;;;;;10.38;7.90;;;3.70;99.90;;;;;;5034904;28;20052;-60
2023/04/14 06:21:23;;;;;;;11.10;7.38;;;3.70;99.90;;;;;;5044162;28;20027;-60
2023/04/14 06:23:48;;;;;;;14.40;7.60;;;3.80;99.90;;;;;;5035176;28;20088;-59
2023/04/14 06:26:14;;;;;;;11.27;8.38;;;3.80;99.90;;;;;;5044993;28;20096;-59
2023/04/14 06:28:39;;;;;;;13.02;8.23;;;3.90;99.90;;;;;;5035436;28;20030;-60
2023/04/14 06:31:05;;;;;;;10.68;8.30;;;3.90;99.90;;;;;;5044501;28;20759;-58
2023/04/14 06:33:30;;;;;;;9.85;7.93;;;4.00;99.90;;;;;;5034443;28;20021;-61
2023/04/14 06:35:56;;;;;;;12.30;8.85;;;4.10;99.90;;;;;;5038477;28;20029;-60
2023/04/14 06:38:23;;;;;;;14.38;9.55;;;4.20;99.90;;;;;;5040042;28;20036;-59
2023/04/14 06:40:49;;;;;;;13.80;9.73;;;4.30;99.90;;;;;;5033953;28;20021;-60
2023/04/14 06:43:16;;;;;;;11.57;9.52;;;4.40;99.90;;;;;;5026156;28;20032;-61
2023/04/14 06:45:42;;;;;;;13.07;9.18;;;4.50;99.90;;;;;;5035041;28;20426;-61
2023/04/14 06:48:08;;;;;;;14.77;10.18;;;4.60;99.90;;;;;;5042927;28;20101;-61
2023/04/14 06:50:33;;;;;;;13.55;9.68;;;4.60;99.90;;;;;;5042713;28;20199;-61
2023/04/14 06:52:59;;;;;;;16.02;9.63;;;4.70;99.90;;;;;;5033131;28;20032;-60
2023/04/14 06:55:24;;;;;;;14.07;9.77;;;4.80;99.90;;;;;;5036176;28;20017;-61
2023/04/14 06:57:50;;;;;;;13.02;10.00;;;5.00;99.90;;;;;;5044952;28;20037;-61
2023/04/14 07:00:16;;;;;;;15.73;10.02;;;5.10;99.90;;;;;;5034633;28;20106;-60
2023/04/14 07:02:42;;;;;;;21.48;14.88;;;5.30;99.90;;;;;;5040238;28;20041;-59
2023/04/14 07:05:07;;;;;;;13.68;9.20;;;5.40;99.90;;;;;;5038524;28;20067;-60
2023/04/14 07:07:35;;;;;;;14.60;9.20;;;5.50;99.90;;;;;;5042102;28;20391;-60
2023/04/14 07:10:00;;;;;;;14.80;8.73;;;5.70;99.90;;;;;;5042919;28;20562;-59
2023/04/14 07:12:26;;;;;;;16.50;8.63;;;5.80;99.90;;;;;;5040691;28;20124;-61
2023/04/14 07:14:51;;;;;;;13.00;8.00;;;6.00;99.90;;;;;;5044696;28;20372;-60
2023/04/14 07:17:17;;;;;;;11.40;8.20;;;6.10;99.90;;;;;;5036499;28;20030;-60
2023/04/14 07:19:44;;;;;;;9.27;7.40;;;6.30;99.90;;;;;;5064362;22;20049;-49
2023/04/14 07:22:09;;;;;;;13.40;8.23;;;6.40;99.90;;;;;;5058105;28;20033;-49
2023/04/14 07:24:35;;;;;;;13.23;7.57;;;6.70;99.90;;;;;;5062517;28;20028;-50
2023/04/14 07:27:00;;;;;;;11.00;7.40;;;6.80;99.90;;;;;;5050299;28;20041;-52
2023/04/14 07:29:28;;;;;;;12.82;7.45;;;7.00;99.90;;;;;;5062092;28;20016;-49
2023/04/14 07:31:54;;;;;;;14.25;8.07;;;7.20;99.90;;;;;;5050819;28;20041;-53
2023/04/14 07:34:19;;;;;;;8.43;6.18;;;7.30;99.90;;;;;;5049717;28;20028;-50
2023/04/14 07:36:45;;;;;;;13.65;5.78;;;7.50;99.90;;;;;;5050089;28;20079;-48
2023/04/14 07:39:10;;;;;;;8.20;6.07;;;7.60;99.90;;;;;;5058846;28;20574;-48
2023/04/14 07:41:36;;;;;;;8.57;5.28;;;7.70;99.90;;;;;;5058981;28;20040;-49
2023/04/14 07:44:01;;;;;;;4.55;3.92;;;7.80;99.90;;;;;;5056295;28;20036;-49
2023/04/14 07:46:27;;;;;;;7.63;4.13;;;7.90;99.90;;;;;;5057682;28;20437;-51
2023/04/14 07:48:53;;;;;;;7.25;3.35;;;8.00;99.90;;;;;;5058221;28;20394;-50
2023/04/14 07:51:18;;;;;;;7.20;3.97;;;8.20;99.90;;;;;;5050321;28;20115;-49
2023/04/14 07:53:44;;;;;;;7.03;4.93;;;8.20;99.90;;;;;;5052038;28;20017;-49
2023/04/14 07:56:11;;;;;;;5.47;4.50;;;8.40;99.90;;;;;;5056068;28;20016;-51
2023/04/14 07:58:37;;;;;;;9.93;4.03;;;8.40;99.90;;;;;;5057368;28;20487;-48
2023/04/14 08:01:06;;;;;;;4.72;3.72;;;8.50;99.90;;;;;;5058139;28;20028;-51
2023/04/14 08:03:32;;;;;;;6.90;4.05;;;8.60;99.90;;;;;;5057634;28;20586;-49
2023/04/14 08:05:57;;;;;;;7.82;3.45;;;8.60;99.90;;;;;;5044827;28;20025;-51
2023/04/14 08:08:24;;;;;;;9.13;4.00;;;8.60;99.90;;;;;;5048532;28;20132;-51
2023/04/14 08:10:49;;;;;;;10.32;4.35;;;8.70;99.90;;;;;;5053536;28;20475;-52
2023/04/14 08:13:15;;;;;;;6.03;3.35;;;8.80;99.90;;;;;;5062532;28;20021;-51
2023/04/14 08:15:40;;;;;;;6.60;3.47;;;8.80;99.90;;;;;;5049740;28;20063;-50
2023/04/14 08:18:06;;;;;;;10.00;4.63;;;8.90;99.90;;;;;;5043189;28;20024;-50
2023/04/14 08:20:32;;;;;;;6.55;3.92;;;8.90;99.90;;;;;;5052356;28;20535;-48
2023/04/14 08:22:57;;;;;;;4.50;3.40;;;9.00;99.90;;;;;;5054652;28;20025;-50
2023/04/14 08:25:23;;;;;;;6.47;3.13;;;9.10;99.90;;;;;;5050711;28;20021;-48
2023/04/14 08:27:49;;;;;;;4.90;2.55;;;9.20;99.90;;;;;;5056972;28;20107;-50
2023/04/14 08:30:15;;;;;;;6.85;3.45;;;9.40;99.90;;;;;;5061987;28;20031;-48
2023/04/14 08:32:40;;;;;;;4.32;2.72;;;9.50;99.90;;;;;;5059298;28;20032;-48
2023/04/14 08:35:06;;;;;;;9.38;2.42;;;9.60;99.90;;;;;;5062839;28;20021;-48
2023/04/14 08:37:32;;;;;;;3.72;1.98;;;9.70;99.90;;;;;;5058566;28;20127;-48
2023/04/14 08:39:57;;;;;;;2.88;2.17;;;9.80;99.90;;;;;;5061293;28;20413;-48
2023/04/14 08:42:24;;;;;;;4.80;2.38;;;9.90;99.90;;;;;;5058821;28;20664;-48
2023/04/14 08:44:51;;;;;;;5.60;1.95;;;10.00;99.90;;;;;;5060391;28;20095;-50
2023/04/14 08:47:20;;;;;;;9.18;1.95;;;10.10;99.90;;;;;;5057924;28;20029;-49
2023/04/14 08:49:53;;;;;;;5.18;1.90;;;10.00;99.90;;;;;;5056694;28;20021;-48
2023/04/14 08:52:22;;;;;;;2.38;1.70;;;10.10;99.90;;;;;;5061378;28;20035;-48
2023/04/14 08:54:49;;;;;;;3.90;1.55;;;10.20;99.90;;;;;;5051976;28;20067;-48
2023/04/14 08:57:18;;;;;;;5.03;1.52;;;10.20;99.90;;;;;;5062287;28;20382;-48
2023/04/14 08:59:44;;;;;;;2.80;1.70;;;10.20;99.90;;;;;;5059712;28;20032;-49
2023/04/14 09:02:11;;;;;;;3.42;1.30;;;10.40;99.90;;;;;;5056088;28;20115;-48
2023/04/14 09:04:37;;;;;;;4.68;1.38;;;10.50;99.90;;;;;;5048100;28;20091;-48
2023/04/14 09:07:03;;;;;;;2.08;0.80;;;10.60;99.90;;;;;;5051357;28;20032;-50
2023/04/14 09:09:30;;;;;;;6.10;1.33;;;10.70;99.90;;;;;;5060288;28;20048;-49
2023/04/14 09:11:56;;;;;;;3.58;1.33;;;10.70;99.90;;;;;;5045557;28;20433;-50
2023/04/14 09:14:22;;;;;;;5.50;1.33;;;10.80;99.90;;;;;;5058524;28;20025;-48
2023/04/14 09:16:52;;;;;;;3.47;1.05;;;10.90;99.90;;;;;;5045492;28;20033;-48
2023/04/14 09:19:19;;;;;;;5.90;1.50;;;11.00;99.90;;;;;;5061272;28;20081;-49
2023/04/14 09:21:45;;;;;;;2.45;1.13;;;11.10;99.90;;;;;;5047102;28;20030;-49
2023/04/14 09:24:11;;;;;;;4.97;1.15;;;11.10;99.90;;;;;;5059820;28;20046;-48
2023/04/14 09:26:37;;;;;;;3.95;1.77;;;11.20;99.90;;;;;;5061945;28;20017;-50
2023/04/14 09:29:02;;;;;;;3.88;1.20;;;11.30;99.90;;;;;;5057347;28;20032;-51
2023/04/14 09:31:29;;;;;;;3.80;1.13;;;11.30;99.90;;;;;;5060488;28;20597;-50
2023/04/14 09:33:54;;;;;;;3.10;1.02;;;11.20;99.90;;;;;;5057193;28;20095;-48
2023/04/14 09:36:21;;;;;;;1.50;1.00;;;11.20;99.90;;;;;;5060194;28;20092;-50
2023/04/14 09:38:48;;;;;;;4.07;1.23;;;11.20;99.90;;;;;;5050685;28;20438;-48
2023/04/14 09:41:20;;;;;;;3.75;1.25;;;11.20;99.90;;;;;;5056573;28;20024;-49
2023/04/14 09:43:46;;;;;;;5.18;1.30;;;11.10;99.90;;;;;;5060172;28;20040;-46
2023/04/14 09:46:11;;;;;;;5.40;1.85;;;11.20;99.90;;;;;;5055122;28;20106;-48
2023/04/14 09:48:51;;;;;;;4.50;0.95;;;11.30;99.90;;;;;;5051095;28;20033;-51
2023/04/14 09:51:21;;;;;;;3.65;1.40;;;11.30;99.90;;;;;;5048817;28;20021;-47
2023/04/14 09:53:46;;;;;;;4.88;0.77;;;11.30;99.90;;;;;;5051138;28;20498;-48
2023/04/14 09:56:12;;;;;;;3.95;1.25;;;11.40;99.90;;;;;;5065072;28;20025;-50
2023/04/14 09:58:40;;;;;;;4.05;1.35;;;11.50;99.90;;;;;;5057941;28;20074;-48
2023/04/14 10:01:12;;;;;;;2.10;0.90;;;11.60;99.90;;;;;;5054508;28;20399;-49
2023/04/14 10:03:40;;;;;;;3.80;1.25;;;11.70;99.90;;;;;;5059777;28;20032;-50
2023/04/14 10:06:20;;;;;;;4.38;1.10;;;11.70;99.90;;;;;;5061009;28;20012;-49
2023/04/14 10:08:48;;;;;;;2.60;1.48;;;11.70;99.90;;;;;;5060056;28;20024;-49
2023/04/14 10:11:14;;;;;;;2.60;1.40;;;11.70;99.90;;;;;;5055829;28;20030;-47
2023/04/14 10:13:41;;;;;;;5.85;1.77;;;11.80;99.90;;;;;;5059551;28;20079;-47
2023/04/14 10:16:07;;;;;;;4.55;1.50;;;11.90;99.90;;;;;;5044976;28;20016;-48
2023/04/14 10:18:33;;;;;;;7.72;1.63;;;12.00;99.90;;;;;;5055672;28;20031;-50
2023/04/14 10:21:00;;;;;;;2.38;1.17;;;12.10;99.90;;;;;;5056245;28;20156;-47
2023/04/14 10:23:26;;;;;;;4.50;1.67;;;12.10;99.90;;;;;;5059414;28;20012;-47
2023/04/14 10:25:53;;;;;;;6.55;1.80;;;12.10;99.90;;;;;;5059273;28;20024;-49
2023/04/14 10:28:20;;;;;;;5.13;1.85;;;12.20;99.90;;;;;;5066961;28;20027;-47
2023/04/14 10:30:47;;;;;;;5.30;1.70;;;12.30;99.90;;;;;;5058755;28;20037;-51
2023/04/14 10:33:13;;;;;;;2.60;1.27;;;12.30;99.90;;;;;;5060255;28;20103;-48
2023/04/14 10:35:41;;;;;;;8.57;1.48;;;12.30;99.90;;;;;;5054350;28;20645;-47
2023/04/14 10:38:07;;;;;;;2.25;1.42;;;12.40;99.90;;;;;;5039311;28;20037;-49
2023/04/14 10:40:49;;;;;;;4.43;1.35;;;12.40;99.90;;;;;;5052038;28;20041;-52
2023/04/14 10:43:15;;;;;;;4.05;1.35;;;12.40;99.90;;;;;;5048526;28;20601;-48
2023/04/14 10:45:57;;;;;;;2.50;1.05;;;12.40;99.90;;;;;;5055230;28;20067;-50
2023/04/14 10:48:31;;;;;;;3.83;1.35;;;12.50;99.90;;;;;;5046830;28;20428;-49
2023/04/14 10:51:08;;;;;;;1.45;1.08;;;12.60;99.90;;;;;;5051477;28;20044;-51
2023/04/14 10:53:46;;;;;;;3.65;1.45;;;12.70;99.90;;;;;;5053592;28;20521;-50
2023/04/14 10:56:12;;;;;;;2.83;0.93;;;12.50;99.90;;;;;;5050343;28;20521;-48
2023/04/14 10:58:38;;;;;;;3.60;1.52;;;12.70;99.90;;;;;;5056367;28;20032;-47
2023/04/14 11:01:30;;;;;;;2.40;1.27;;;12.70;99.90;;;;;;5059193;28;20028;-47
2023/04/14 11:04:09;;;;;;;4.60;1.60;;;12.80;99.90;;;;;;5056305;28;20041;-47
2023/04/14 11:06:52;;;;;;;4.43;1.27;;;12.80;99.90;;;;;;5056406;28;20029;-48
2023/04/14 11:09:25;;;;;;;3.30;1.23;;;12.80;99.90;;;;;;5050780;28;20016;-48
2023/04/14 11:11:51;;;;;;;4.22;1.27;;;12.90;99.90;;;;;;5055527;28;20639;-48
2023/04/14 11:14:24;;;;;;;3.08;1.45;;;13.00;99.90;;;;;;5055441;28;20024;-47
2023/04/14 11:16:49;;;;;;;4.20;1.40;;;12.90;99.90;;;;;;5054159;28;20375;-47
2023/04/14 11:19:15;;;;;;;4.38;1.27;;;12.90;99.90;;;;;;5055352;28;20077;-47
2023/04/14 11:21:52;;;;;;;2.85;1.10;;;12.80;99.90;;;;;;5054733;28;20038;-50
2023/04/14 11:24:21;;;;;;;3.17;1.30;;;12.80;99.90;;;;;;5049926;28;20076;-49
2023/04/14 11:26:49;;;;;;;2.42;1.20;;;12.90;99.90;;;;;;5045448;28;20499;-48
2023/04/14 11:29:15;;;;;;;1.73;0.88;;;13.00;99.90;;;;;;5059623;28;20104;-48
2023/04/14 11:31:41;;;;;;;4.90;1.63;;;13.00;99.90;;;;;;5059483;28;20124;-47
2023/04/14 11:34:06;;;;;;;1.33;0.95;;;12.90;99.90;;;;;;5052350;28;20048;-49
2023/04/14 11:36:38;;;;;;;3.05;0.93;;;12.90;99.90;;;;;;5061549;28;20020;-48
2023/04/14 11:39:06;;;;;;;1.83;0.88;;;12.90;99.90;;;;;;5056575;28;20513;-49
2023/04/14 11:41:32;;;;;;;1.83;0.98;;;12.80;99.90;;;;;;5062371;28;20533;-48
2023/04/14 11:43:58;;;;;;;3.92;1.20;;;12.80;99.90;;;;;;5057446;28;20017;-47
2023/04/14 11:46:24;;;;;;;3.17;1.10;;;12.70;99.90;;;;;;5061845;28;20086;-51
2023/04/14 11:48:54;;;;;;;2.55;1.10;;;12.60;99.90;;;;;;5058736;28;20036;-49
2023/04/14 11:51:20;;;;;;;2.03;1.00;;;12.60;99.90;;;;;;5055857;28;20028;-49
2023/04/14 11:53:45;;;;;;;1.90;1.45;;;12.40;99.90;;;;;;5055387;28;20502;-48
2023/04/14 11:56:11;;;;;;;3.28;1.30;;;12.40;99.90;;;;;;5063571;28;20025;-48
2023/04/14 11:58:37;;;;;;;4.47;1.20;;;12.30;99.90;;;;;;5052182;28;20025;-49
2023/04/14 12:01:03;;;;;;;2.13;0.82;;;12.30;99.90;;;;;;5049844;28;20074;-49
2023/04/14 12:03:31;;;;;;;3.00;1.38;;;12.50;99.90;;;;;;5059388;28;20032;-48
2023/04/14 12:06:01;;;;;;;2.35;1.38;;;12.60;99.90;;;;;;5053606;28;20032;-49
2023/04/14 12:08:31;;;;;;;3.72;1.40;;;12.80;99.90;;;;;;5053081;28;20390;-51
2023/04/14 12:11:09;;;;;;;3.30;1.55;;;12.90;99.90;;;;;;5062071;28;20029;-48
2023/04/14 12:13:40;;;;;;;2.80;1.00;;;12.90;99.90;;;;;;5055386;28;20025;-51
2023/04/14 12:16:06;;;;;;;2.28;0.82;;;12.80;99.90;;;;;;5063530;28;20028;-48
2023/04/14 12:18:31;;;;;;;1.67;1.40;;;12.90;99.90;;;;;;5055890;28;20032;-48
2023/04/14 12:21:01;;;;;;;6.32;1.90;;;13.10;99.90;;;;;;5061909;28;20036;-48
2023/04/14 12:23:27;;;;;;;3.78;1.60;;;13.10;99.90;;;;;;5055111;28;20103;-48
2023/04/14 12:25:53;;;;;;;2.53;1.60;;;13.30;99.90;;;;;;5062008;28;20528;-47
2023/04/14 12:28:27;;;;;;;4.07;1.80;;;13.30;99.90;;;;;;5063103;28;20032;-48
2023/04/14 12:30:56;;;;;;;7.10;2.13;;;13.30;99.90;;;;;;5059887;28;20410;-50
2023/04/14 12:33:22;;;;;;;3.28;1.73;;;13.30;99.90;;;;;;5062632;28;20030;-49
2023/04/14 12:35:50;;;;;;;3.40;2.42;;;13.30;99.90;;;;;;5055793;28;20174;-47
2023/04/14 12:38:15;;;;;;;3.20;2.20;;;13.20;99.90;;;;;;5057244;28;20032;-49
2023/04/14 12:40:44;;;;;;;3.75;1.67;;;13.00;99.90;;;;;;5051382;28;20079;-48
2023/04/14 12:43:11;;;;;;;3.40;2.25;;;13.00;99.90;;;;;;5052412;28;20012;-51
2023/04/14 12:45:54;;;;;;;2.92;2.03;;;13.00;99.90;;;;;;5055019;28;20083;-48
2023/04/14 12:48:21;;;;;;;6.15;1.70;;;12.90;99.90;;;;;;5056032;28;20024;-52
2023/04/14 12:50:46;;;;;;;4.80;1.92;;;12.90;99.90;;;;;;5055406;28;20043;-49
2023/04/14 12:53:26;;;;;;;2.60;2.10;;;12.90;99.90;;;;;;5059082;28;20024;-49
2023/04/14 12:56:16;;;;;;;5.22;1.60;;;12.90;99.90;;;;;;5056435;28;20037;-49